Terminal Aerodrome Forecast
Issued by NWS Portland, ME

Home | Current Version | Previous Version | Text Only | Print | Product List | Glossary On
Versions: 1 2 3 4 5 6 7 8 9 10 11 12 13 14 15 16 17 18 19 20 21 22 23
483
FTUS41 KGYX 292320
TAFCON
TAF
KCON 292320Z 3000/3024 15006KT P6SM FEW060 BKN200
     FM300200 VRB03KT P6SM SCT100 BKN200
     FM301400 35004KT P6SM SCT120
     FM302000 14006KT P6SM FEW040 SCT120=

USA.gov is the U.S. government's official web portal to all federal, state and local government web resources and services.